sensor_id;sensor_type;location;lat;lon;timestamp;temperature;humidity
37886;DHT22;23726;52.520;13.434;2022-12-07T00:03:35;21.30;51.40
37886;DHT22;23726;52.520;13.434;2022-12-07T00:06:02;21.20;51.40
37886;DHT22;23726;52.520;13.434;2022-12-07T00:08:28;21.30;51.50
37886;DHT22;23726;52.520;13.434;2022-12-07T00:10:54;21.30;51.50
37886;DHT22;23726;52.520;13.434;2022-12-07T00:13:20;21.30;51.40
37886;DHT22;23726;52.520;13.434;2022-12-07T00:15:46;21.30;51.50
37886;DHT22;23726;52.520;13.434;2022-12-07T00:18:11;21.20;51.50
37886;DHT22;23726;52.520;13.434;2022-12-07T00:20:37;21.30;51.50
37886;DHT22;23726;52.520;13.434;2022-12-07T00:23:03;21.30;52.10
37886;DHT22;23726;52.520;13.434;2022-12-07T00:25:30;21.30;51.70
37886;DHT22;23726;52.520;13.434;2022-12-07T00:27:55;21.30;51.80
37886;DHT22;23726;52.520;13.434;2022-12-07T00:30:22;21.30;51.60
37886;DHT22;23726;52.520;13.434;2022-12-07T00:32:48;21.30;51.60
37886;DHT22;23726;52.520;13.434;2022-12-07T00:35:14;21.30;51.50
37886;DHT22;23726;52.520;13.434;2022-12-07T00:37:40;21.30;51.70
37886;DHT22;23726;52.520;13.434;2022-12-07T00:40:06;21.30;51.60
37886;DHT22;23726;52.520;13.434;2022-12-07T00:42:32;21.30;51.60
37886;DHT22;23726;52.520;13.434;2022-12-07T00:44:57;21.20;51.40
37886;DHT22;23726;52.520;13.434;2022-12-07T00:47:24;21.30;51.50
37886;DHT22;23726;52.520;13.434;2022-12-07T00:49:50;21.20;51.80
37886;DHT22;23726;52.520;13.434;2022-12-07T00:52:15;21.30;51.80
37886;DHT22;23726;52.520;13.434;2022-12-07T00:54:41;21.30;52.20
37886;DHT22;23726;52.520;13.434;2022-12-07T00:57:06;21.30;52.00
37886;DHT22;23726;52.520;13.434;2022-12-07T00:59:32;21.30;51.70
37886;DHT22;23726;52.520;13.434;2022-12-07T01:01:58;21.30;51.80
37886;DHT22;23726;52.520;13.434;2022-12-07T01:04:23;21.30;51.70
37886;DHT22;23726;52.520;13.434;2022-12-07T01:06:49;21.20;51.60
37886;DHT22;23726;52.520;13.434;2022-12-07T01:09:15;21.20;51.60
37886;DHT22;23726;52.520;13.434;2022-12-07T01:11:40;21.20;51.40
37886;DHT22;23726;52.520;13.434;2022-12-07T01:14:06;21.30;51.50
37886;DHT22;23726;52.520;13.434;2022-12-07T01:16:33;21.20;51.50
37886;DHT22;23726;52.520;13.434;2022-12-07T01:18:59;21.20;51.60
37886;DHT22;23726;52.520;13.434;2022-12-07T01:21:29;21.20;51.50
37886;DHT22;23726;52.520;13.434;2022-12-07T01:23:56;21.20;51.50
37886;DHT22;23726;52.520;13.434;2022-12-07T01:26:23;21.20;51.50
37886;DHT22;23726;52.520;13.434;2022-12-07T01:28:49;21.20;51.50
37886;DHT22;23726;52.520;13.434;2022-12-07T01:31:20;21.20;51.50
37886;DHT22;23726;52.520;13.434;2022-12-07T01:33:49;21.20;51.40
37886;DHT22;23726;52.520;13.434;2022-12-07T01:36:29;21.20;51.90
37886;DHT22;23726;52.520;13.434;2022-12-07T01:38:57;21.20;51.40
37886;DHT22;23726;52.520;13.434;2022-12-07T01:41:26;21.20;51.40
37886;DHT22;23726;52.520;13.434;2022-12-07T01:44:23;21.20;51.30
37886;DHT22;23726;52.520;13.434;2022-12-07T01:51:48;21.20;51.40
37886;DHT22;23726;52.520;13.434;2022-12-07T01:54:15;21.20;51.40
37886;DHT22;23726;52.520;13.434;2022-12-07T01:56:49;21.20;51.40
37886;DHT22;23726;52.520;13.434;2022-12-07T01:59:17;21.20;51.40
37886;DHT22;23726;52.520;13.434;2022-12-07T02:01:43;21.20;51.40
37886;DHT22;23726;52.520;13.434;2022-12-07T02:04:10;21.20;51.40
37886;DHT22;23726;52.520;13.434;2022-12-07T02:06:37;21.20;51.40
37886;DHT22;23726;52.520;13.434;2022-12-07T02:09:04;21.20;51.40
37886;DHT22;23726;52.520;13.434;2022-12-07T02:11:30;21.20;51.40
37886;DHT22;23726;52.520;13.434;2022-12-07T02:13:56;21.20;51.90
37886;DHT22;23726;52.520;13.434;2022-12-07T02:16:38;21.20;51.30
37886;DHT22;23726;52.520;13.434;2022-12-07T02:27:52;21.20;51.40
37886;DHT22;23726;52.520;13.434;2022-12-07T02:30:22;21.20;51.40
37886;DHT22;23726;52.520;13.434;2022-12-07T02:33:04;21.20;52.00
37886;DHT22;23726;52.520;13.434;2022-12-07T02:35:36;21.10;51.40
37886;DHT22;23726;52.520;13.434;2022-12-07T02:38:14;21.10;51.30
37886;DHT22;23726;52.520;13.434;2022-12-07T02:40:53;21.20;51.40
37886;DHT22;23726;52.520;13.434;2022-12-07T02:43:25;21.10;51.40
37886;DHT22;23726;52.520;13.434;2022-12-07T02:45:54;21.10;51.40
37886;DHT22;23726;52.520;13.434;2022-12-07T02:48:23;21.10;51.30
37886;DHT22;23726;52.520;13.434;2022-12-07T02:50:52;21.10;51.30
37886;DHT22;23726;52.520;13.434;2022-12-07T02:53:38;21.10;51.30
37886;DHT22;23726;52.520;13.434;2022-12-07T03:02:48;21.20;51.40
37886;DHT22;23726;52.520;13.434;2022-12-07T03:13:37;21.10;51.40
37886;DHT22;23726;52.520;13.434;2022-12-07T03:16:16;21.10;51.40
37886;DHT22;23726;52.520;13.434;2022-12-07T03:18:53;21.10;51.40
37886;DHT22;23726;52.520;13.434;2022-12-07T03:21:26;21.10;51.40
37886;DHT22;23726;52.520;13.434;2022-12-07T03:23:56;21.20;51.40
37886;DHT22;23726;52.520;13.434;2022-12-07T03:26:28;21.10;51.30
37886;DHT22;23726;52.520;13.434;2022-12-07T03:28:59;21.20;51.40
37886;DHT22;23726;52.520;13.434;2022-12-07T03:31:32;21.10;51.40
37886;DHT22;23726;52.520;13.434;2022-12-07T03:34:13;21.10;51.30
37886;DHT22;23726;52.520;13.434;2022-12-07T03:39:23;21.10;51.30
37886;DHT22;23726;52.520;13.434;2022-12-07T03:41:50;21.10;51.30
37886;DHT22;23726;52.520;13.434;2022-12-07T03:44:17;21.20;51.30
37886;DHT22;23726;52.520;13.434;2022-12-07T03:46:58;21.10;51.30
37886;DHT22;23726;52.520;13.434;2022-12-07T03:49:31;21.20;51.40
37886;DHT22;23726;52.520;13.434;2022-12-07T03:52:18;21.10;51.30
37886;DHT22;23726;52.520;13.434;2022-12-07T03:54:55;21.10;51.30
37886;DHT22;23726;52.520;13.434;2022-12-07T03:57:23;21.10;51.30
37886;DHT22;23726;52.520;13.434;2022-12-07T03:59:51;21.10;51.30
37886;DHT22;23726;52.520;13.434;2022-12-07T04:02:18;21.10;51.30
37886;DHT22;23726;52.520;13.434;2022-12-07T04:04:45;21.10;51.30
37886;DHT22;23726;52.520;13.434;2022-12-07T04:07:11;21.20;51.20
37886;DHT22;23726;52.520;13.434;2022-12-07T04:09:36;21.10;51.20
37886;DHT22;23726;52.520;13.434;2022-12-07T04:12:02;21.20;51.30
37886;DHT22;23726;52.520;13.434;2022-12-07T04:14:28;21.20;51.30
37886;DHT22;23726;52.520;13.434;2022-12-07T04:16:55;21.20;51.30
37886;DHT22;23726;52.520;13.434;2022-12-07T04:19:33;21.20;51.30
37886;DHT22;23726;52.520;13.434;2022-12-07T04:22:00;21.20;51.30
37886;DHT22;23726;52.520;13.434;2022-12-07T04:24:27;21.20;51.30
37886;DHT22;23726;52.520;13.434;2022-12-07T04:26:53;21.20;51.30
37886;DHT22;23726;52.520;13.434;2022-12-07T04:29:20;21.20;51.30
37886;DHT22;23726;52.520;13.434;2022-12-07T04:31:46;21.20;51.20
37886;DHT22;23726;52.520;13.434;2022-12-07T04:34:12;21.20;51.20
37886;DHT22;23726;52.520;13.434;2022-12-07T04:36:38;21.20;51.20
37886;DHT22;23726;52.520;13.434;2022-12-07T04:39:04;21.20;51.30
37886;DHT22;23726;52.520;13.434;2022-12-07T04:41:30;21.20;51.20
37886;DHT22;23726;52.520;13.434;2022-12-07T04:43:59;21.20;51.20
37886;DHT22;23726;52.520;13.434;2022-12-07T04:46:27;21.20;51.20
37886;DHT22;23726;52.520;13.434;2022-12-07T04:48:55;21.20;51.30
37886;DHT22;23726;52.520;13.434;2022-12-07T04:51:28;21.20;51.30
37886;DHT22;23726;52.520;13.434;2022-12-07T04:53:55;21.20;51.20
37886;DHT22;23726;52.520;13.434;2022-12-07T04:56:21;21.20;51.80
37886;DHT22;23726;52.520;13.434;2022-12-07T04:58:49;21.20;51.20
37886;DHT22;23726;52.520;13.434;2022-12-07T05:01:16;21.20;51.20
37886;DHT22;23726;52.520;13.434;2022-12-07T05:03:42;21.20;51.20
37886;DHT22;23726;52.520;13.434;2022-12-07T05:06:09;21.20;51.30
37886;DHT22;23726;52.520;13.434;2022-12-07T05:08:35;21.20;51.20
37886;DHT22;23726;52.520;13.434;2022-12-07T05:11:01;21.20;51.20
37886;DHT22;23726;52.520;13.434;2022-12-07T05:13:27;21.20;51.30
37886;DHT22;23726;52.520;13.434;2022-12-07T05:15:52;21.20;51.30
37886;DHT22;23726;52.520;13.434;2022-12-07T05:18:18;21.20;51.20
37886;DHT22;23726;52.520;13.434;2022-12-07T05:20:45;21.20;51.30
37886;DHT22;23726;52.520;13.434;2022-12-07T05:23:11;21.20;51.30
37886;DHT22;23726;52.520;13.434;2022-12-07T05:25:37;21.20;51.30
37886;DHT22;23726;52.520;13.434;2022-12-07T05:28:03;21.20;51.50
37886;DHT22;23726;52.520;13.434;2022-12-07T05:30:30;21.20;51.40
37886;DHT22;23726;52.520;13.434;2022-12-07T05:32:57;21.20;51.40
37886;DHT22;23726;52.520;13.434;2022-12-07T05:35:23;21.20;51.40
37886;DHT22;23726;52.520;13.434;2022-12-07T05:37:49;21.20;51.50
37886;DHT22;23726;52.520;13.434;2022-12-07T05:40:15;21.20;51.40
37886;DHT22;23726;52.520;13.434;2022-12-07T05:42:41;21.20;51.40
37886;DHT22;23726;52.520;13.434;2022-12-07T05:45:08;21.20;51.40
37886;DHT22;23726;52.520;13.434;2022-12-07T05:47:35;21.20;51.40
37886;DHT22;23726;52.520;13.434;2022-12-07T05:50:00;21.20;51.40
37886;DHT22;23726;52.520;13.434;2022-12-07T05:52:26;21.20;51.40
37886;DHT22;23726;52.520;13.434;2022-12-07T05:54:52;21.20;51.50
37886;DHT22;23726;52.520;13.434;2022-12-07T05:57:18;21.20;51.30
37886;DHT22;23726;52.520;13.434;2022-12-07T05:59:43;21.20;51.30
37886;DHT22;23726;52.520;13.434;2022-12-07T06:02:11;21.20;51.30
37886;DHT22;23726;52.520;13.434;2022-12-07T06:04:39;21.20;51.40
37886;DHT22;23726;52.520;13.434;2022-12-07T06:07:06;21.20;51.40
37886;DHT22;23726;52.520;13.434;2022-12-07T06:09:32;21.20;51.40
37886;DHT22;23726;52.520;13.434;2022-12-07T06:12:00;21.20;51.30
37886;DHT22;23726;52.520;13.434;2022-12-07T06:14:44;21.20;51.30
37886;DHT22;23726;52.520;13.434;2022-12-07T06:17:11;21.20;51.30
37886;DHT22;23726;52.520;13.434;2022-12-07T06:19:37;21.20;51.30
37886;DHT22;23726;52.520;13.434;2022-12-07T06:22:04;21.20;51.30
37886;DHT22;23726;52.520;13.434;2022-12-07T06:24:30;21.20;51.30
37886;DHT22;23726;52.520;13.434;2022-12-07T06:26:56;21.20;51.40
37886;DHT22;23726;52.520;13.434;2022-12-07T06:29:22;21.20;51.30
37886;DHT22;23726;52.520;13.434;2022-12-07T06:31:48;21.20;51.30
37886;DHT22;23726;52.520;13.434;2022-12-07T06:34:17;21.20;51.30
37886;DHT22;23726;52.520;13.434;2022-12-07T06:36:43;21.20;51.40
37886;DHT22;23726;52.520;13.434;2022-12-07T06:39:09;21.20;51.30
37886;DHT22;23726;52.520;13.434;2022-12-07T06:41:36;21.20;51.40
37886;DHT22;23726;52.520;13.434;2022-12-07T06:44:03;21.20;51.30
37886;DHT22;23726;52.520;13.434;2022-12-07T06:46:28;21.20;51.40
37886;DHT22;23726;52.520;13.434;2022-12-07T06:48:54;21.20;51.40
37886;DHT22;23726;52.520;13.434;2022-12-07T06:51:20;21.20;51.30
37886;DHT22;23726;52.520;13.434;2022-12-07T06:53:45;21.20;51.30
37886;DHT22;23726;52.520;13.434;2022-12-07T06:56:11;21.20;51.30
37886;DHT22;23726;52.520;13.434;2022-12-07T06:58:39;21.20;51.30
37886;DHT22;23726;52.520;13.434;2022-12-07T07:01:13;21.20;51.40
37886;DHT22;23726;52.520;13.434;2022-12-07T07:03:39;21.20;51.40
37886;DHT22;23726;52.520;13.434;2022-12-07T07:06:06;21.20;51.40
37886;DHT22;23726;52.520;13.434;2022-12-07T07:08:33;21.20;51.40
37886;DHT22;23726;52.520;13.434;2022-12-07T07:10:58;21.20;51.40
37886;DHT22;23726;52.520;13.434;2022-12-07T07:13:24;21.20;51.30
37886;DHT22;23726;52.520;13.434;2022-12-07T07:15:50;21.20;51.30
37886;DHT22;23726;52.520;13.434;2022-12-07T07:18:15;21.20;51.80
37886;DHT22;23726;52.520;13.434;2022-12-07T07:20:41;21.20;51.30
37886;DHT22;23726;52.520;13.434;2022-12-07T07:23:07;21.20;51.30
37886;DHT22;23726;52.520;13.434;2022-12-07T07:25:33;21.20;51.30
37886;DHT22;23726;52.520;13.434;2022-12-07T07:27:59;21.20;51.30
37886;DHT22;23726;52.520;13.434;2022-12-07T07:30:25;21.20;51.30
37886;DHT22;23726;52.520;13.434;2022-12-07T07:32:50;21.30;51.90
37886;DHT22;23726;52.520;13.434;2022-12-07T07:35:16;21.20;51.30
37886;DHT22;23726;52.520;13.434;2022-12-07T07:37:42;21.20;51.30
37886;DHT22;23726;52.520;13.434;2022-12-07T07:40:09;21.20;51.90
37886;DHT22;23726;52.520;13.434;2022-12-07T07:42:35;21.20;51.40
37886;DHT22;23726;52.520;13.434;2022-12-07T07:45:00;21.20;51.40
37886;DHT22;23726;52.520;13.434;2022-12-07T07:47:26;21.20;51.40
37886;DHT22;23726;52.520;13.434;2022-12-07T07:49:51;21.20;51.30
37886;DHT22;23726;52.520;13.434;2022-12-07T07:52:17;21.30;51.40
37886;DHT22;23726;52.520;13.434;2022-12-07T07:54:43;21.20;51.30
37886;DHT22;23726;52.520;13.434;2022-12-07T07:57:08;21.20;51.40
37886;DHT22;23726;52.520;13.434;2022-12-07T07:59:34;21.20;51.40
37886;DHT22;23726;52.520;13.434;2022-12-07T08:01:59;21.20;51.40
37886;DHT22;23726;52.520;13.434;2022-12-07T08:04:25;21.20;51.40
37886;DHT22;23726;52.520;13.434;2022-12-07T08:06:51;21.20;51.40
37886;DHT22;23726;52.520;13.434;2022-12-07T08:09:16;21.20;51.40
37886;DHT22;23726;52.520;13.434;2022-12-07T08:11:42;21.20;51.40
37886;DHT22;23726;52.520;13.434;2022-12-07T08:14:07;21.20;51.40
37886;DHT22;23726;52.520;13.434;2022-12-07T08:16:34;21.20;51.40
37886;DHT22;23726;52.520;13.434;2022-12-07T08:19:00;21.20;51.40
37886;DHT22;23726;52.520;13.434;2022-12-07T08:21:26;21.20;51.40
37886;DHT22;23726;52.520;13.434;2022-12-07T08:23:53;21.20;51.40
37886;DHT22;23726;52.520;13.434;2022-12-07T08:26:18;21.30;51.50
37886;DHT22;23726;52.520;13.434;2022-12-07T08:28:44;21.30;51.40
37886;DHT22;23726;52.520;13.434;2022-12-07T08:31:13;21.30;51.40
37886;DHT22;23726;52.520;13.434;2022-12-07T08:33:39;21.20;51.40
37886;DHT22;23726;52.520;13.434;2022-12-07T08:36:08;21.20;51.40
37886;DHT22;23726;52.520;13.434;2022-12-07T08:38:35;21.30;51.40
37886;DHT22;23726;52.520;13.434;2022-12-07T08:41:01;21.30;52.00
37886;DHT22;23726;52.520;13.434;2022-12-07T08:43:27;21.20;51.40
37886;DHT22;23726;52.520;13.434;2022-12-07T08:48:30;21.30;51.50
37886;DHT22;23726;52.520;13.434;2022-12-07T08:50:58;21.20;51.40
37886;DHT22;23726;52.520;13.434;2022-12-07T08:53:23;21.30;51.50
37886;DHT22;23726;52.520;13.434;2022-12-07T08:55:50;21.30;51.40
37886;DHT22;23726;52.520;13.434;2022-12-07T08:58:16;21.30;51.50
37886;DHT22;23726;52.520;13.434;2022-12-07T09:00:41;21.30;51.50
37886;DHT22;23726;52.520;13.434;2022-12-07T09:03:07;21.30;51.60
37886;DHT22;23726;52.520;13.434;2022-12-07T09:05:33;21.30;51.60
37886;DHT22;23726;52.520;13.434;2022-12-07T09:08:00;21.30;51.60
37886;DHT22;23726;52.520;13.434;2022-12-07T09:10:27;21.30;51.60
37886;DHT22;23726;52.520;13.434;2022-12-07T09:12:53;21.30;51.60
37886;DHT22;23726;52.520;13.434;2022-12-07T09:15:18;21.30;51.60
37886;DHT22;23726;52.520;13.434;2022-12-07T09:17:44;21.30;51.60
37886;DHT22;23726;52.520;13.434;2022-12-07T09:20:10;21.30;51.60
37886;DHT22;23726;52.520;13.434;2022-12-07T09:22:36;21.30;51.60
37886;DHT22;23726;52.520;13.434;2022-12-07T09:25:02;21.30;51.60
37886;DHT22;23726;52.520;13.434;2022-12-07T09:27:28;21.30;51.60
37886;DHT22;23726;52.520;13.434;2022-12-07T09:29:53;21.30;51.60
37886;DHT22;23726;52.520;13.434;2022-12-07T09:32:19;21.30;51.60
37886;DHT22;23726;52.520;13.434;2022-12-07T09:34:45;21.30;51.60
37886;DHT22;23726;52.520;13.434;2022-12-07T09:37:10;21.30;51.60
37886;DHT22;23726;52.520;13.434;2022-12-07T09:39:40;21.30;51.60
37886;DHT22;23726;52.520;13.434;2022-12-07T09:42:06;21.30;51.60
37886;DHT22;23726;52.520;13.434;2022-12-07T09:44:33;21.30;51.60
37886;DHT22;23726;52.520;13.434;2022-12-07T09:46:59;21.30;51.60
37886;DHT22;23726;52.520;13.434;2022-12-07T09:49:28;21.30;51.60
37886;DHT22;23726;52.520;13.434;2022-12-07T09:52:03;21.30;51.50
37886;DHT22;23726;52.520;13.434;2022-12-07T09:54:29;21.30;51.60
37886;DHT22;23726;52.520;13.434;2022-12-07T09:56:56;21.30;51.60
37886;DHT22;23726;52.520;13.434;2022-12-07T09:59:21;21.30;51.60
37886;DHT22;23726;52.520;13.434;2022-12-07T10:01:49;21.30;51.60
37886;DHT22;23726;52.520;13.434;2022-12-07T10:04:21;21.30;51.60
37886;DHT22;23726;52.520;13.434;2022-12-07T10:06:47;21.30;51.60
37886;DHT22;23726;52.520;13.434;2022-12-07T10:09:15;21.30;51.50
37886;DHT22;23726;52.520;13.434;2022-12-07T10:12:07;21.30;51.60
37886;DHT22;23726;52.520;13.434;2022-12-07T10:14:37;21.30;51.60
37886;DHT22;23726;52.520;13.434;2022-12-07T10:17:08;21.30;51.60
37886;DHT22;23726;52.520;13.434;2022-12-07T10:19:48;21.30;51.60
37886;DHT22;23726;52.520;13.434;2022-12-07T10:22:16;21.30;51.60
37886;DHT22;23726;52.520;13.434;2022-12-07T10:24:45;21.30;51.60
37886;DHT22;23726;52.520;13.434;2022-12-07T10:27:32;21.30;51.60
37886;DHT22;23726;52.520;13.434;2022-12-07T10:29:58;21.40;51.70
37886;DHT22;23726;52.520;13.434;2022-12-07T10:32:33;21.30;51.60
37886;DHT22;23726;52.520;13.434;2022-12-07T10:37:44;21.30;51.50
37886;DHT22;23726;52.520;13.434;2022-12-07T10:51:15;21.40;52.00
37886;DHT22;23726;52.520;13.434;2022-12-07T11:10:02;21.30;51.60
37886;DHT22;23726;52.520;13.434;2022-12-07T11:18:25;21.30;51.60
37886;DHT22;23726;52.520;13.434;2022-12-07T11:28:45;21.30;51.70
37886;DHT22;23726;52.520;13.434;2022-12-07T11:31:29;21.30;51.60
37886;DHT22;23726;52.520;13.434;2022-12-07T11:34:03;21.30;51.80
37886;DHT22;23726;52.520;13.434;2022-12-07T11:36:49;21.30;51.70
37886;DHT22;23726;52.520;13.434;2022-12-07T11:39:33;21.20;51.80
37886;DHT22;23726;52.520;13.434;2022-12-07T11:42:11;21.20;51.70
37886;DHT22;23726;52.520;13.434;2022-12-07T11:44:53;21.20;51.80
37886;DHT22;23726;52.520;13.434;2022-12-07T11:47:35;21.20;51.80
37886;DHT22;23726;52.520;13.434;2022-12-07T11:53:03;21.20;51.80
37886;DHT22;23726;52.520;13.434;2022-12-07T11:55:43;21.20;51.90
37886;DHT22;23726;52.520;13.434;2022-12-07T11:58:51;21.20;51.80
37886;DHT22;23726;52.520;13.434;2022-12-07T12:04:07;21.20;52.30
37886;DHT22;23726;52.520;13.434;2022-12-07T12:06:41;21.20;51.90
37886;DHT22;23726;52.520;13.434;2022-12-07T12:09:16;21.10;51.90
37886;DHT22;23726;52.520;13.434;2022-12-07T12:14:34;21.10;51.80
37886;DHT22;23726;52.520;13.434;2022-12-07T12:17:35;21.10;51.80
37886;DHT22;23726;52.520;13.434;2022-12-07T12:23:00;21.10;51.80
37886;DHT22;23726;52.520;13.434;2022-12-07T12:25:51;21.10;51.70
37886;DHT22;23726;52.520;13.434;2022-12-07T12:33:35;21.10;51.80
37886;DHT22;23726;52.520;13.434;2022-12-07T12:51:57;21.10;51.70
37886;DHT22;23726;52.520;13.434;2022-12-07T12:54:26;21.10;51.70
37886;DHT22;23726;52.520;13.434;2022-12-07T12:56:59;21.10;51.70
37886;DHT22;23726;52.520;13.434;2022-12-07T12:59:32;21.10;51.60
37886;DHT22;23726;52.520;13.434;2022-12-07T13:02:22;21.10;51.70
37886;DHT22;23726;52.520;13.434;2022-12-07T13:21:02;21.10;51.60
37886;DHT22;23726;52.520;13.434;2022-12-07T13:29:15;21.10;51.70
37886;DHT22;23726;52.520;13.434;2022-12-07T13:31:47;21.10;51.60
37886;DHT22;23726;52.520;13.434;2022-12-07T13:39:49;21.10;51.60
37886;DHT22;23726;52.520;13.434;2022-12-07T13:42:34;21.10;51.60
37886;DHT22;23726;52.520;13.434;2022-12-07T13:45:20;21.10;51.60
37886;DHT22;23726;52.520;13.434;2022-12-07T13:47:54;21.10;51.60
37886;DHT22;23726;52.520;13.434;2022-12-07T13:52:49;21.00;51.50
37886;DHT22;23726;52.520;13.434;2022-12-07T13:55:16;21.00;51.50
37886;DHT22;23726;52.520;13.434;2022-12-07T13:57:45;21.10;51.50
37886;DHT22;23726;52.520;13.434;2022-12-07T14:00:24;21.10;51.50
37886;DHT22;23726;52.520;13.434;2022-12-07T14:03:02;21.00;51.50
37886;DHT22;23726;52.520;13.434;2022-12-07T14:05:35;21.10;51.60
37886;DHT22;23726;52.520;13.434;2022-12-07T14:08:20;21.10;51.60
37886;DHT22;23726;52.520;13.434;2022-12-07T14:13:38;21.00;51.50
37886;DHT22;23726;52.520;13.434;2022-12-07T14:18:50;21.00;51.50
37886;DHT22;23726;52.520;13.434;2022-12-07T14:21:19;21.00;51.50
37886;DHT22;23726;52.520;13.434;2022-12-07T14:23:45;21.00;51.60
37886;DHT22;23726;52.520;13.434;2022-12-07T14:26:26;21.00;52.10
37886;DHT22;23726;52.520;13.434;2022-12-07T14:28:52;21.00;51.50
37886;DHT22;23726;52.520;13.434;2022-12-07T14:31:21;21.00;51.50
37886;DHT22;23726;52.520;13.434;2022-12-07T14:33:49;21.00;51.50
37886;DHT22;23726;52.520;13.434;2022-12-07T14:36:16;21.00;51.50
37886;DHT22;23726;52.520;13.434;2022-12-07T14:38:42;21.00;51.50
37886;DHT22;23726;52.520;13.434;2022-12-07T14:41:15;21.00;51.40
37886;DHT22;23726;52.520;13.434;2022-12-07T14:44:00;21.00;51.50
37886;DHT22;23726;52.520;13.434;2022-12-07T14:46:25;21.00;51.40
37886;DHT22;23726;52.520;13.434;2022-12-07T14:48:51;21.00;51.50
37886;DHT22;23726;52.520;13.434;2022-12-07T14:51:17;21.00;51.50
37886;DHT22;23726;52.520;13.434;2022-12-07T14:53:50;21.00;51.40
37886;DHT22;23726;52.520;13.434;2022-12-07T14:56:17;21.00;51.40
37886;DHT22;23726;52.520;13.434;2022-12-07T14:58:42;21.00;51.40
37886;DHT22;23726;52.520;13.434;2022-12-07T15:01:08;21.00;51.40
37886;DHT22;23726;52.520;13.434;2022-12-07T15:03:34;21.00;51.40
37886;DHT22;23726;52.520;13.434;2022-12-07T15:06:00;21.00;51.40
37886;DHT22;23726;52.520;13.434;2022-12-07T15:08:26;21.00;51.40
37886;DHT22;23726;52.520;13.434;2022-12-07T15:10:53;21.00;51.40
37886;DHT22;23726;52.520;13.434;2022-12-07T15:13:18;21.00;51.40
37886;DHT22;23726;52.520;13.434;2022-12-07T15:16:03;21.00;51.40
37886;DHT22;23726;52.520;13.434;2022-12-07T15:18:28;21.00;51.40
37886;DHT22;23726;52.520;13.434;2022-12-07T15:20:54;21.00;51.40
37886;DHT22;23726;52.520;13.434;2022-12-07T15:23:20;21.00;51.40
37886;DHT22;23726;52.520;13.434;2022-12-07T15:25:48;21.00;51.40
37886;DHT22;23726;52.520;13.434;2022-12-07T15:28:14;21.00;51.40
37886;DHT22;23726;52.520;13.434;2022-12-07T15:30:41;21.00;51.90
37886;DHT22;23726;52.520;13.434;2022-12-07T15:33:10;21.00;51.30
37886;DHT22;23726;52.520;13.434;2022-12-07T15:35:42;21.00;51.30
37886;DHT22;23726;52.520;13.434;2022-12-07T15:38:08;20.90;51.30
37886;DHT22;23726;52.520;13.434;2022-12-07T15:40:34;21.00;51.30
37886;DHT22;23726;52.520;13.434;2022-12-07T15:43:01;21.00;51.30
37886;DHT22;23726;52.520;13.434;2022-12-07T15:45:26;21.00;51.30
37886;DHT22;23726;52.520;13.434;2022-12-07T15:47:52;21.00;51.30
37886;DHT22;23726;52.520;13.434;2022-12-07T15:50:21;21.00;51.30
37886;DHT22;23726;52.520;13.434;2022-12-07T15:52:47;20.90;51.20
37886;DHT22;23726;52.520;13.434;2022-12-07T15:55:13;20.90;51.20
37886;DHT22;23726;52.520;13.434;2022-12-07T15:57:40;20.90;51.20
37886;DHT22;23726;52.520;13.434;2022-12-07T16:00:08;21.00;51.20
37886;DHT22;23726;52.520;13.434;2022-12-07T16:02:34;21.00;51.20
37886;DHT22;23726;52.520;13.434;2022-12-07T16:05:01;20.90;51.20
37886;DHT22;23726;52.520;13.434;2022-12-07T16:07:27;20.90;51.20
37886;DHT22;23726;52.520;13.434;2022-12-07T16:09:53;21.00;51.20
37886;DHT22;23726;52.520;13.434;2022-12-07T16:12:19;20.90;51.10
37886;DHT22;23726;52.520;13.434;2022-12-07T16:14:44;20.90;51.20
37886;DHT22;23726;52.520;13.434;2022-12-07T16:17:10;20.90;51.10
37886;DHT22;23726;52.520;13.434;2022-12-07T16:19:37;20.90;51.20
37886;DHT22;23726;52.520;13.434;2022-12-07T16:22:03;20.90;51.10
37886;DHT22;23726;52.520;13.434;2022-12-07T16:24:30;20.90;51.60
37886;DHT22;23726;52.520;13.434;2022-12-07T16:26:55;20.90;51.00
37886;DHT22;23726;52.520;13.434;2022-12-07T16:29:22;20.90;51.10
37886;DHT22;23726;52.520;13.434;2022-12-07T16:31:50;20.90;51.10
37886;DHT22;23726;52.520;13.434;2022-12-07T16:34:16;20.90;51.10
37886;DHT22;23726;52.520;13.434;2022-12-07T16:36:41;20.90;51.10
37886;DHT22;23726;52.520;13.434;2022-12-07T16:39:08;20.90;51.00
37886;DHT22;23726;52.520;13.434;2022-12-07T16:41:33;20.90;51.00
37886;DHT22;23726;52.520;13.434;2022-12-07T16:44:05;20.90;51.10
37886;DHT22;23726;52.520;13.434;2022-12-07T16:46:35;20.90;51.10
37886;DHT22;23726;52.520;13.434;2022-12-07T16:49:01;20.90;51.00
37886;DHT22;23726;52.520;13.434;2022-12-07T16:51:27;20.90;51.10
37886;DHT22;23726;52.520;13.434;2022-12-07T16:53:53;20.90;51.60
37886;DHT22;23726;52.520;13.434;2022-12-07T16:56:19;20.90;51.10
37886;DHT22;23726;52.520;13.434;2022-12-07T16:58:45;20.90;51.10
37886;DHT22;23726;52.520;13.434;2022-12-07T17:01:17;20.90;51.00
37886;DHT22;23726;52.520;13.434;2022-12-07T17:03:44;20.90;51.00
37886;DHT22;23726;52.520;13.434;2022-12-07T17:06:15;20.90;51.00
37886;DHT22;23726;52.520;13.434;2022-12-07T17:08:43;20.90;51.00
37886;DHT22;23726;52.520;13.434;2022-12-07T17:11:13;20.90;51.00
37886;DHT22;23726;52.520;13.434;2022-12-07T17:13:39;20.90;51.00
37886;DHT22;23726;52.520;13.434;2022-12-07T17:16:24;20.90;51.00
37886;DHT22;23726;52.520;13.434;2022-12-07T17:18:50;20.90;51.00
37886;DHT22;23726;52.520;13.434;2022-12-07T17:21:16;20.90;51.00
37886;DHT22;23726;52.520;13.434;2022-12-07T17:23:42;20.90;51.00
37886;DHT22;23726;52.520;13.434;2022-12-07T17:26:31;20.90;51.00
37886;DHT22;23726;52.520;13.434;2022-12-07T17:28:56;20.90;51.00
37886;DHT22;23726;52.520;13.434;2022-12-07T17:31:23;20.90;51.00
37886;DHT22;23726;52.520;13.434;2022-12-07T17:33:50;20.90;51.00
37886;DHT22;23726;52.520;13.434;2022-12-07T17:36:20;20.90;51.50
37886;DHT22;23726;52.520;13.434;2022-12-07T17:38:46;20.90;51.00
37886;DHT22;23726;52.520;13.434;2022-12-07T17:41:24;20.90;51.00
37886;DHT22;23726;52.520;13.434;2022-12-07T17:44:23;20.90;51.00
37886;DHT22;23726;52.520;13.434;2022-12-07T17:46:51;20.80;51.00
37886;DHT22;23726;52.520;13.434;2022-12-07T17:49:22;20.80;51.00
37886;DHT22;23726;52.520;13.434;2022-12-07T17:51:49;20.90;51.00
37886;DHT22;23726;52.520;13.434;2022-12-07T17:54:33;20.80;51.00